Flight Track Log - Related Links

Times and Time Zones

All times are in EDT time to prevent confusion due to time zone crossing. See the ELJ178 flight status page for this flight to view local times or setup timezone preferences in your user account.

Time Position Orientation Groundspeed Altitude Reporting Facility
EDT Latitude Longitude Course Direction KTS MPH feet Rate Location/Type
Tue 07:48:03 AM 42.4667 -71.3167 236° Southwest 181 208 1,300  Level KA90
Tue 07:49:15 AM 42.4333 -71.3833 236° Southwest 202 232 3,000 2,000 Climbing KA90
Tue 07:50:15 AM 42.4000 -71.4667 242° Southwest 229 264 5,700 3,000 Climbing KA90
Tue 07:51:13 AM 42.3656 -71.5436 239° Southwest 261 300 8,900 3,153 Climbing Boston Center
Tue 07:52:13 AM 42.3581 -71.6422 264° West 280 322 11,900 3,250 Climbing Boston Center
Tue 07:53:13 AM 42.3192 -71.7494 244° Southwest 293 337 15,400 2,950 Climbing Boston Center
Tue 07:54:13 AM 42.2736 -71.8311 233° Southwest 304 350 17,800 2,450 Climbing Boston Center
Tue 07:55:13 AM 42.2181 -71.9356 234° Southwest 332 382 20,300 2,550 Climbing Boston Center
Tue 07:56:13 AM 42.1581 -72.0367 231° Southwest 344 396 22,900 2,500 Climbing Boston Center
Tue 07:57:13 AM 42.1000 -72.1406 233° Southwest 349 402 25,300 2,150 Climbing Boston Center
Tue 07:58:13 AM 42.0397 -72.2528 234° Southwest 360 414 27,200 2,000 Climbing Boston Center
Tue 07:59:13 AM 41.9814 -72.3675 236° Southwest 367 422 29,300 2,200 Climbing Boston Center
Tue 08:00:13 AM 41.9356 -72.4903 243° Southwest 372 428 31,600 2,050 Climbing Boston Center
Tue 08:01:13 AM 41.8939 -72.6103 245° Southwest 367 422 33,400 1,850 Climbing Boston Center
Tue 08:02:13 AM 41.8497 -72.7244 243° Southwest 361 415 35,300 1,750 Climbing Boston Center
Tue 08:03:13 AM 41.8100 -72.8411 245° Southwest 356 410 36,900 1,400 Climbing Boston Center
Tue 08:04:13 AM 41.7469 -72.9519 233° Southwest 367 422 38,100 1,200 Climbing Boston Center
Tue 08:05:13 AM 41.6819 -73.0489 228° Southwest 367 422 39,300 950 Climbing Boston Center
Tue 08:06:13 AM 41.6167 -73.1508 229° Southwest 367 422 40,000 350 Climbing Boston Center
Tue 08:07:13 AM 41.5472 -73.2556 228° Southwest 367 422 40,000  Level Boston Center
Tue 08:09:29 AM 41.3969 -73.4897 229° Southwest 378 435 40,000  Level New York Center
Tue 08:10:29 AM 41.3278 -73.5947 229° Southwest 378 435 40,000  Level New York Center
Tue 08:11:28 AM 41.2606 -73.6994 230° Southwest 373 429 40,000  Level New York Center
Tue 08:12:28 AM 41.1914 -73.8039 229° Southwest 373 429 40,000  Level New York Center
Tue 08:13:28 AM 41.1219 -73.9111 229° Southwest 373 429 40,000  Level New York Center
Tue 08:14:28 AM 41.0525 -74.0150 228° Southwest 378 435 40,000  Level New York Center
Tue 08:15:30 AM 40.9828 -74.1217 229° Southwest 378 435 40,000  Level New York Center
Tue 08:16:30 AM 40.9025 -74.2331 226° Southwest 378 435 40,000  Level New York Center
Tue 08:17:28 AM 40.8328 -74.3364 228° Southwest 378 435 40,000  Level New York Center
Tue 08:18:28 AM 40.7650 -74.4397 229° Southwest 383 441 40,000  Level New York Center
Tue 08:19:28 AM 40.7011 -74.5486 232° Southwest 383 441 40,000  Level New York Center
Tue 08:20:29 AM 40.6353 -74.6542 231° Southwest 383 441 40,000 -50 Level New York Center
Tue 08:21:29 AM 40.5692 -74.7597 231° Southwest 383 441 39,900  Descending New York Center
Tue 08:22:30 AM 40.4989 -74.8622 228° Southwest 383 441 40,000 50 Climbing New York Center
Tue 08:23:28 AM 40.4267 -74.9614 226° Southwest 383 441 40,000 -50 Level New York Center
Tue 08:24:29 AM 40.3564 -75.0633 228° Southwest 383 441 39,900  Descending New York Center
Tue 08:25:27 AM 40.2881 -75.1625 228° Southwest 378 435 40,000  Climbing New York Center
Tue 08:26:28 AM 40.2156 -75.2639 227° Southwest 378 435 39,900  Descending New York Center
Tue 08:27:28 AM 40.1453 -75.3600 226° Southwest 378 435 40,000 50 Climbing New York Center
Tue 08:28:28 AM 40.0767 -75.4558 227° Southwest 373 429 40,000  Level New York Center
Tue 08:29:30 AM 40.0081 -75.5542 228° Southwest 373 429 40,000  Level New York Center
Tue 08:30:27 AM 39.9375 -75.6522 227° Southwest 373 429 40,000  Level New York Center
Tue 08:31:28 AM 39.8708 -75.7503 228° Southwest 373 429 40,000  Level New York Center
Tue 08:32:30 AM 39.8081 -75.8539 232° Southwest 373 429 40,000 197 Level New York Center
Tue 08:33:30 AM 39.7408 -75.9572 230° Southwest 373 429 40,400 821 Climbing New York Center
Tue 08:34:27 AM 39.6781 -76.0606 232° Southwest 373 429 41,600 807 Climbing New York Center
Tue 08:35:29 AM 39.6131 -76.1608 230° Southwest 368 423 42,000 450 Climbing New York Center
Tue 08:36:27 AM 39.5514 -76.2564 230° Southwest 368 423 42,500 517 Climbing Washington Center
Tue 08:37:25 AM 39.4861 -76.3578 230° Southwest 368 423 43,000 252 Climbing Washington Center
Tue 08:38:26 AM 39.4231 -76.4567 230° Southwest 373 429 43,000  Level Washington Center
Tue 08:39:26 AM 39.3514 -76.5578 228° Southwest 373 429 43,000  Level Washington Center
Tue 08:40:27 AM 39.2881 -76.6561 230° Southwest 368 423 43,000  Level Washington Center
Tue 08:41:25 AM 39.2267 -76.7569 232° Southwest 373 429 43,000  Level Washington Center
Tue 08:42:25 AM 39.1631 -76.8550 230° Southwest 373 429 43,000  Level Washington Center
Tue 08:43:26 AM 39.1058 -76.9450 231° Southwest 373 429 43,000  Level Washington Center
Tue 08:44:27 AM 39.0444 -77.0403 230° Southwest 368 423 43,000  Level Washington Center
Tue 08:45:27 AM 38.9683 -77.1242 221° Southwest 368 423 43,000  Level Washington Center
Tue 08:46:24 AM 38.8942 -77.2025 219° Southwest 362 417 43,000  Level Washington Center
Tue 08:47:25 AM 38.8181 -77.2861 221° Southwest 362 417 43,000  Level Washington Center
Tue 08:48:26 AM 38.7419 -77.3669 220° Southwest 357 411 43,000  Level Washington Center
Tue 08:49:27 AM 38.6656 -77.4503 220° Southwest 357 411 43,000  Level Washington Center
Tue 08:50:27 AM 38.5850 -77.5253 216° Southwest 356 410 43,000  Level Washington Center
Tue 08:51:25 AM 38.4983 -77.6078 217° Southwest 356 410 43,000  Level Washington Center
Tue 08:52:26 AM 38.4264 -77.6747 216° Southwest 356 410 43,000  Level Washington Center
Tue 08:53:27 AM 38.3458 -77.7492 216° Southwest 363 418 43,000  Level Washington Center
Tue 08:54:25 AM 38.2650 -77.8236 216° Southwest 363 418 43,000  Level Washington Center
Tue 08:55:26 AM 38.1844 -77.8978 216° Southwest 363 418 43,000  Level Washington Center
Tue 08:56:27 AM 38.1036 -77.9747 217° Southwest 363 418 43,000  Level Washington Center
Tue 08:57:24 AM 38.0231 -78.0483 216° Southwest 363 418 43,000  Level Washington Center
Tue 08:58:25 AM 37.9339 -78.1244 214° Southwest 363 418 43,000  Level Washington Center
Tue 08:59:26 AM 37.8614 -78.1931 217° Southwest 363 418 43,000  Level Washington Center
Tue 09:00:27 AM 37.7700 -78.2767 216° Southwest 363 418 43,000  Level Washington Center
Tue 09:01:25 AM 37.6889 -78.3500 216° Southwest 363 418 43,000  Level Washington Center
Tue 09:02:25 AM 37.6058 -78.4256 216° Southwest 368 423 43,000  Level Washington Center
Tue 09:03:26 AM 37.5206 -78.5008 215° Southwest 368 423 43,000  Level Washington Center
Tue 09:04:26 AM 37.4461 -78.5661 215° Southwest 368 423 43,000  Level Washington Center
Tue 09:05:26 AM 37.3628 -78.6411 216° Southwest 368 423 43,000  Level Washington Center
Tue 09:06:27 AM 37.2817 -78.7136 215° Southwest 368 423 43,000  Level Washington Center
Tue 09:07:25 AM 37.1983 -78.7858 215° Southwest 368 423 43,000  Level Washington Center
Tue 09:08:25 AM 37.1064 -78.8681 216° Southwest 363 418 43,000  Level Washington Center
Tue 09:09:26 AM 37.0253 -78.9375 214° Southwest 363 418 43,000  Level Washington Center
Tue 09:10:25 AM 36.9461 -79.0094 216° Southwest 363 418 43,000  Level Washington Center
Tue 09:11:26 AM 36.8647 -79.0811 215° Southwest 363 418 43,000  Level Washington Center
Tue 09:12:26 AM 36.7811 -79.1525 214° Southwest 363 418 43,000  Level Washington Center
Tue 09:13:27 AM 36.7083 -79.2139 214° Southwest 358 412 43,000  Level Washington Center
Tue 09:14:27 AM 36.6289 -79.2878 217° Southwest 358 412 43,000  Level Washington Center
Tue 09:15:24 AM 36.5456 -79.3564 213° Southwest 364 419 43,000  Level Washington Center
Tue 09:16:25 AM 36.4661 -79.4275 216° Southwest 364 419 43,000  Level Washington Center
Tue 09:19:07 AM 36.2475 -79.6131 214° Southwest 348 400 43,000  Level Atlanta Center
Tue 09:20:07 AM 36.1686 -79.6819 215° Southwest 348 400 43,000  Level Atlanta Center
Tue 09:21:07 AM 36.0775 -79.7586 214° Southwest 354 407 43,000  Level Atlanta Center
Tue 09:22:07 AM 35.9986 -79.8269 215° Southwest 349 402 43,000  Level Atlanta Center
Tue 09:23:07 AM 35.9175 -79.8953 214° Southwest 354 407 43,000  Level Atlanta Center
Tue 09:24:07 AM 35.8364 -79.9633 214° Southwest 354 407 43,000  Level Atlanta Center
Tue 09:25:07 AM 35.7633 -80.0258 215° Southwest 359 413 43,000  Level Atlanta Center
Tue 09:26:07 AM 35.6839 -80.0911 214° Southwest 359 413 43,000  Level Atlanta Center
Tue 09:27:07 AM 35.5928 -80.1722 216° Southwest 364 419 43,000  Level Atlanta Center
Tue 09:28:07 AM 35.5114 -80.2400 214° Southwest 359 413 43,000  Level Atlanta Center
Tue 09:29:07 AM 35.4211 -80.2925 205° Southwest 359 413 43,000  Level Atlanta Center
Tue 09:30:07 AM 35.3264 -80.3350 200° South 365 420 43,000  Level Atlanta Center
Tue 09:31:07 AM 35.2361 -80.3822 203° Southwest 365 420 43,000  Level Atlanta Center
Tue 09:32:39 AM 35.0875 -80.4547 202° Southwest 355 409 43,000  Level Jacksonville Center
Tue 09:33:39 AM 34.9944 -80.5006 202° Southwest 355 409 43,000  Level Jacksonville Center
Tue 09:34:39 AM 34.8994 -80.5489 203° Southwest 367 422 43,000  Level Jacksonville Center
Tue 09:35:39 AM 34.8106 -80.5967 204° Southwest 356 410 43,000  Level Jacksonville Center
Tue 09:36:39 AM 34.7197 -80.6419 202° Southwest 356 410 43,000  Level Jacksonville Center
Tue 09:37:39 AM 34.6244 -80.6875 201° Southwest 361 415 43,000  Level Jacksonville Center
Tue 09:38:39 AM 34.5356 -80.7275 200° South 380 437 43,000  Level Jacksonville Center
Tue 09:39:39 AM 34.4403 -80.7728 201° Southwest 375 432 43,000  Level Jacksonville Center
Tue 09:40:39 AM 34.3389 -80.8231 202° Southwest 370 426 43,000  Level Jacksonville Center
Tue 09:41:39 AM 34.2500 -80.8653 201° Southwest 365 420 43,000  Level Jacksonville Center
Tue 09:42:39 AM 34.1547 -80.9128 202° Southwest 365 420 43,000  Level Jacksonville Center
Tue 09:43:39 AM 34.0614 -80.9572 202° Southwest 365 420 43,000  Level Jacksonville Center
Tue 09:44:39 AM 33.9683 -81.0019 202° Southwest 365 420 43,000  Level Jacksonville Center
Tue 09:45:39 AM 33.8814 -81.0414 201° Southwest 370 426 43,000  Level Jacksonville Center
Tue 09:46:39 AM 33.7881 -81.0883 203° Southwest 370 426 43,000  Level Jacksonville Center
Tue 09:47:39 AM 33.6886 -81.1403 203° Southwest 365 420 43,000  Level Jacksonville Center
Tue 09:48:39 AM 33.5953 -81.1869 203° Southwest 365 420 43,000  Level Jacksonville Center
Tue 09:49:39 AM 33.5042 -81.2311 202° Southwest 370 426 43,000  Level Jacksonville Center
Tue 09:50:39 AM 33.4150 -81.2775 203° Southwest 365 420 43,000  Level Jacksonville Center
Tue 09:51:39 AM 33.3236 -81.3214 202° Southwest 365 420 43,000  Level Jacksonville Center
Tue 09:52:39 AM 33.2489 -81.3550 201° Southwest 365 420 43,000  Level Jacksonville Center
Tue 09:53:39 AM 33.1389 -81.4092 202° Southwest 365 420 43,000  Level Jacksonville Center
Tue 09:54:39 AM 33.0478 -81.4553 203° Southwest 360 414 43,000  Level Jacksonville Center
Tue 09:55:39 AM 32.9564 -81.5014 203° Southwest 355 409 43,000  Level Jacksonville Center
Tue 09:56:39 AM 32.8650 -81.5447 202° Southwest 355 409 43,000  Level Jacksonville Center
Tue 09:57:39 AM 32.7736 -81.5881 202° Southwest 355 409 43,000  Level Jacksonville Center
Tue 09:58:39 AM 32.6842 -81.6314 202° Southwest 355 409 43,000  Level Jacksonville Center
Tue 09:59:39 AM 32.5908 -81.6744 201° Southwest 363 418 43,000  Level Jacksonville Center
Tue 10:00:39 AM 32.5075 -81.7150 202° Southwest 358 412 43,000  Level Jacksonville Center
Tue 10:01:39 AM 32.4058 -81.7631 202° Southwest 358 412 43,000  Level Jacksonville Center
Tue 10:02:39 AM 32.3142 -81.7814 190° South 358 412 43,000  Level Jacksonville Center
Tue 10:03:39 AM 32.2036 -81.8025 189° South 371 427 43,000  Level Jacksonville Center
Tue 10:04:39 AM 32.1036 -81.8208 189° South 371 427 43,000  Level Jacksonville Center
Tue 10:05:39 AM 32.0097 -81.8414 191° South 371 427 43,000  Level Jacksonville Center
Tue 10:06:39 AM 31.8992 -81.8600 188° South 371 427 43,000  Level Jacksonville Center
Tue 10:07:39 AM 31.8075 -81.8781 190° South 374 430 43,000  Level Jacksonville Center
Tue 10:08:39 AM 31.6969 -81.8989 189° South 374 430 43,000  Level Jacksonville Center
Tue 10:09:39 AM 31.5950 -81.9169 189° South 374 430 43,000  Level Jacksonville Center
Tue 10:10:39 AM 31.5072 -81.9350 190° South 368 423 43,000  Level Jacksonville Center
Tue 10:11:39 AM 31.3947 -81.9556 189° South 374 430 43,000  Level Jacksonville Center
Tue 10:12:39 AM 31.3050 -81.9736 190° South 369 425 43,000  Level Jacksonville Center
Tue 10:13:39 AM 31.2072 -81.9914 189° South 369 425 43,000  Level Jacksonville Center
Tue 10:14:39 AM 31.1069 -82.0117 190° South 369 425 43,000  Level Jacksonville Center
Tue 10:15:39 AM 31.0089 -82.0322 190° South 369 425 43,000  Level Jacksonville Center
Tue 10:16:39 AM 30.9089 -82.0500 189° South 369 425 43,000  Level Jacksonville Center
Tue 10:17:39 AM 30.8067 -82.0678 188° South 369 425 43,000  Level Jacksonville Center
Tue 10:18:39 AM 30.7086 -82.0881 190° South 369 425 43,000 -300 Level Jacksonville Center
Tue 10:19:39 AM 30.6086 -82.1058 189° South 369 425 42,400 -1,250 Descending Jacksonville Center
Tue 10:20:39 AM 30.4939 -82.1211 187° South 374 430 40,500 -1,850 Descending Jacksonville Center
Tue 10:21:39 AM 30.3917 -82.1389 189° South 374 430 38,700 -1,250 Descending Jacksonville Center
Tue 10:22:39 AM 30.2894 -82.1614 191° South 369 425 38,000 -350 Descending Jacksonville Center
Tue 10:23:39 AM 30.1872 -82.1814 190° South 369 425 38,000 -600 Level Jacksonville Center
Tue 10:24:39 AM 30.0831 -82.1989 188° South 374 430 36,800 -1,350 Descending Jacksonville Center
Tue 10:25:39 AM 29.9786 -82.2211 190° South 374 430 35,300 -1,400 Descending Jacksonville Center
Tue 10:26:39 AM 29.8764 -82.2361 187° South 374 430 34,000 -950 Descending Jacksonville Center
Tue 10:27:39 AM 29.7700 -82.2275 176° South 374 430 33,400 -1,550 Descending Jacksonville Center
Tue 10:28:39 AM 29.6675 -82.2114 172° South 374 430 30,900 -2,500 Descending Jacksonville Center
Tue 10:29:39 AM 29.5611 -82.2025 176° South 379 436 28,400 -2,200 Descending Jacksonville Center
Tue 10:30:39 AM 29.4567 -82.1914 175° South 379 436 26,500 -1,750 Descending Jacksonville Center
Tue 10:31:39 AM 29.3586 -82.1850 177° South 374 430 24,900 -1,850 Descending Jacksonville Center
Tue 10:32:39 AM 29.2603 -82.1736 174° South 362 417 22,800 -2,250 Descending Jacksonville Center
Tue 10:33:39 AM 29.1664 -82.1672 177° South 354 407 20,400 -2,000 Descending Jacksonville Center
Tue 10:34:39 AM 29.0767 -82.1583 175° South 343 395 18,800 -1,700 Descending Jacksonville Center
Tue 10:35:39 AM 28.9825 -82.1472 174° South 343 395 17,000 -1,600 Descending Jacksonville Center
Tue 10:36:39 AM 28.9011 -82.1408 176° South 343 395 15,600 -1,571 Descending Jacksonville Center
Tue 10:38:27 AM 28.7333 -82.1167 173° South 315 362 12,600 -1,571 Descending Tampa TRACON
Tue 10:39:27 AM 28.6500 -82.1167 180° South 303 349 11,200 -800 Descending Tampa TRACON
Tue 10:40:27 AM 28.5667 -82.1000 170° South 303 349 11,000 -95 Descending Tampa TRACON
Tue 10:41:33 AM 28.4833 -82.0833 170° South 301 346 11,000 -283 Level Tampa TRACON
Tue 10:42:34 AM 28.4000 -82.0833 180° South 302 348 10,400 -905 Descending Tampa TRACON
Tue 10:43:39 AM 28.3000 -82.0667 172° South 290 334 9,100 -737 Descending Tampa TRACON
Tue 10:44:28 AM 28.2500 -82.0500 164° South 285 328 9,000 -52 Descending Tampa TRACON
Tue 10:45:34 AM 28.1500 -82.0333 172° South 285 328 9,000 -476 Level Tampa TRACON
Tue 10:46:34 AM 28.0833 -82.0333 180° South 277 319 8,000 -1,100 Descending Tampa TRACON
Tue 10:47:34 AM 28.0000 -82.0167 170° South 277 319 6,800 -1,000 Descending Tampa TRACON
Tue 10:48:34 AM 27.9333 -82.0500 204° Southwest 262 302 6,000 -400 Descending Tampa TRACON
Tue 10:49:34 AM 27.8833 -82.1167 230° Southwest 271 312 6,000  Level Tampa TRACON
Tue 10:50:28 AM 27.8333 -82.1667 221° Southwest 265 305 6,000  Level Tampa TRACON
Tue 10:51:34 AM 27.7667 -82.2333 222° Southwest 267 307 6,000  Level Tampa TRACON
Tue 10:52:34 AM 27.7167 -82.2833 222° Southwest 259 298 6,000 -100 Level Tampa TRACON
Tue 10:53:34 AM 27.6667 -82.3333 222° Southwest 254 292 5,800 -850 Descending Tampa TRACON
Tue 10:54:34 AM 27.6333 -82.4000 241° Southwest 238 274 4,300 -893 Descending Tampa TRACON
Tue 10:55:35 AM 27.6000 -82.4667 241° Southwest 223 257 4,000 -143 Descending Tampa TRACON
Tue 10:56:40 AM 27.6000 -82.5333 270° West 204 235 4,000 -350 Level Tampa TRACON
Tue 10:57:35 AM 27.5833 -82.5833 249° West 179 206 3,300 -835 Descending Tampa TRACON
Tue 10:58:35 AM 27.5667 -82.6167 241° Southwest 162 186 2,400 -684 Descending Tampa TRACON
Tue 10:59:29 AM 27.5333 -82.6500 222° Southwest 159 183 2,000 -211 Descending Tampa TRACON
Tue 11:00:29 AM 27.4833 -82.6667 196° South 160 184 2,000 -150 Level Tampa TRACON
Tue 11:01:29 AM 27.4667 -82.6333 119° Southeast 120 138 1,700 -429 Descending Tampa TRACON
Tue 11:02:35 AM 27.4333 -82.6000 138° Southeast 119 137 1,100 -545 Descending Tampa TRACON

Login

Don't have an account? Register now (free) for customized features, flight alerts, and more!